sensor_id;sensor_type;location;lat;lon;timestamp;temperature;humidity
75281;HTU21D;63874;47.230;39.620;2023-02-28T00:00:26;9.56;65.72
75281;HTU21D;63874;47.230;39.620;2023-02-28T00:02:52;9.56;65.79
75281;HTU21D;63874;47.230;39.620;2023-02-28T00:05:21;9.57;65.82
75281;HTU21D;63874;47.230;39.620;2023-02-28T00:07:47;9.60;65.82
75281;HTU21D;63874;47.230;39.620;2023-02-28T00:10:17;9.62;65.87
75281;HTU21D;63874;47.230;39.620;2023-02-28T00:12:51;9.62;65.87
75281;HTU21D;63874;47.230;39.620;2023-02-28T00:15:17;9.63;65.95
75281;HTU21D;63874;47.230;39.620;2023-02-28T00:17:43;9.63;66.03
75281;HTU21D;63874;47.230;39.620;2023-02-28T00:20:11;9.63;66.10
75281;HTU21D;63874;47.230;39.620;2023-02-28T00:22:42;9.64;66.08
75281;HTU21D;63874;47.230;39.620;2023-02-28T00:25:10;9.66;66.11
75281;HTU21D;63874;47.230;39.620;2023-02-28T00:27:37;9.66;66.36
75281;HTU21D;63874;47.230;39.620;2023-02-28T00:30:05;9.68;66.48
75281;HTU21D;63874;47.230;39.620;2023-02-28T00:32:31;9.67;66.49
75281;HTU21D;63874;47.230;39.620;2023-02-28T00:34:57;9.70;66.62
75281;HTU21D;63874;47.230;39.620;2023-02-28T00:37:23;9.70;66.71
75281;HTU21D;63874;47.230;39.620;2023-02-28T00:39:49;9.71;66.83
75281;HTU21D;63874;47.230;39.620;2023-02-28T00:42:15;9.72;66.94
75281;HTU21D;63874;47.230;39.620;2023-02-28T00:44:41;9.70;66.85
75281;HTU21D;63874;47.230;39.620;2023-02-28T00:47:07;9.71;67.04
75281;HTU21D;63874;47.230;39.620;2023-02-28T00:49:33;9.71;67.08
75281;HTU21D;63874;47.230;39.620;2023-02-28T00:51:59;9.71;67.10
75281;HTU21D;63874;47.230;39.620;2023-02-28T00:54:25;9.70;67.26
75281;HTU21D;63874;47.230;39.620;2023-02-28T00:56:52;9.69;67.27
75281;HTU21D;63874;47.230;39.620;2023-02-28T00:59:18;9.66;67.39
75281;HTU21D;63874;47.230;39.620;2023-02-28T01:01:45;9.64;67.33
75281;HTU21D;63874;47.230;39.620;2023-02-28T01:04:12;9.62;67.41
75281;HTU21D;63874;47.230;39.620;2023-02-28T01:06:38;9.60;67.36
75281;HTU21D;63874;47.230;39.620;2023-02-28T01:09:05;9.54;67.47
75281;HTU21D;63874;47.230;39.620;2023-02-28T01:11:32;9.49;67.74
75281;HTU21D;63874;47.230;39.620;2023-02-28T01:13:58;9.46;67.99
75281;HTU21D;63874;47.230;39.620;2023-02-28T01:16:24;9.40;67.93
75281;HTU21D;63874;47.230;39.620;2023-02-28T01:18:50;9.35;68.04
75281;HTU21D;63874;47.230;39.620;2023-02-28T01:21:18;9.29;68.27
75281;HTU21D;63874;47.230;39.620;2023-02-28T01:23:44;9.23;68.76
75281;HTU21D;63874;47.230;39.620;2023-02-28T01:26:20;9.17;68.95
75281;HTU21D;63874;47.230;39.620;2023-02-28T01:28:48;9.11;68.92
75281;HTU21D;63874;47.230;39.620;2023-02-28T01:31:14;9.07;69.14
75281;HTU21D;63874;47.230;39.620;2023-02-28T01:33:40;9.04;69.23
75281;HTU21D;63874;47.230;39.620;2023-02-28T01:36:13;8.95;69.48
75281;HTU21D;63874;47.230;39.620;2023-02-28T01:38:40;8.93;69.70
75281;HTU21D;63874;47.230;39.620;2023-02-28T01:41:07;8.83;69.95
75281;HTU21D;63874;47.230;39.620;2023-02-28T01:44:03;8.80;70.42
75281;HTU21D;63874;47.230;39.620;2023-02-28T01:46:31;8.74;70.19
75281;HTU21D;63874;47.230;39.620;2023-02-28T01:49:13;8.68;70.64
75281;HTU21D;63874;47.230;39.620;2023-02-28T01:51:45;8.59;70.73
75281;HTU21D;63874;47.230;39.620;2023-02-28T01:54:20;8.52;71.23
75281;HTU21D;63874;47.230;39.620;2023-02-28T01:56:51;8.49;71.45
75281;HTU21D;63874;47.230;39.620;2023-02-28T01:59:41;8.43;71.82
75281;HTU21D;63874;47.230;39.620;2023-02-28T02:02:13;8.36;71.58
75281;HTU21D;63874;47.230;39.620;2023-02-28T02:04:55;8.33;71.91
75281;HTU21D;63874;47.230;39.620;2023-02-28T02:07:23;8.28;72.09
75281;HTU21D;63874;47.230;39.620;2023-02-28T02:24:50;7.69;73.22
75281;HTU21D;63874;47.230;39.620;2023-02-28T02:29:54;7.65;74.03
75281;HTU21D;63874;47.230;39.620;2023-02-28T02:32:44;7.60;73.87
75281;HTU21D;63874;47.230;39.620;2023-02-28T02:35:28;7.55;73.87
75281;HTU21D;63874;47.230;39.620;2023-02-28T02:38:21;7.50;74.44
75281;HTU21D;63874;47.230;39.620;2023-02-28T02:44:02;7.38;74.22
75281;HTU21D;63874;47.230;39.620;2023-02-28T02:46:33;7.35;74.11
75281;HTU21D;63874;47.230;39.620;2023-02-28T02:49:03;7.38;74.55
75281;HTU21D;63874;47.230;39.620;2023-02-28T02:51:32;7.40;74.71
75281;HTU21D;63874;47.230;39.620;2023-02-28T02:56:34;7.42;74.26
75281;HTU21D;63874;47.230;39.620;2023-02-28T02:59:04;7.46;74.30
75281;HTU21D;63874;47.230;39.620;2023-02-28T03:01:32;7.42;74.22
75281;HTU21D;63874;47.230;39.620;2023-02-28T03:04:04;7.38;74.20
75281;HTU21D;63874;47.230;39.620;2023-02-28T03:06:31;7.34;74.38
75281;HTU21D;63874;47.230;39.620;2023-02-28T03:08:57;7.30;74.67
75281;HTU21D;63874;47.230;39.620;2023-02-28T03:11:23;7.28;74.45
75281;HTU21D;63874;47.230;39.620;2023-02-28T03:19:18;7.22;74.49
75281;HTU21D;63874;47.230;39.620;2023-02-28T03:22:06;7.22;74.56
75281;HTU21D;63874;47.230;39.620;2023-02-28T03:32:41;7.12;74.92
75281;HTU21D;63874;47.230;39.620;2023-02-28T03:35:16;7.10;75.00
75281;HTU21D;63874;47.230;39.620;2023-02-28T03:37:51;7.10;75.02
75281;HTU21D;63874;47.230;39.620;2023-02-28T03:40:25;7.05;75.18
75281;HTU21D;63874;47.230;39.620;2023-02-28T03:42:59;6.99;75.50
75281;HTU21D;63874;47.230;39.620;2023-02-28T03:45:30;6.94;75.54
75281;HTU21D;63874;47.230;39.620;2023-02-28T03:48:07;6.94;75.53
75281;HTU21D;63874;47.230;39.620;2023-02-28T03:50:46;6.91;76.06
75281;HTU21D;63874;47.230;39.620;2023-02-28T03:53:17;6.88;75.67
75281;HTU21D;63874;47.230;39.620;2023-02-28T03:55:48;6.87;75.67
75281;HTU21D;63874;47.230;39.620;2023-02-28T03:58:40;6.85;76.04
75281;HTU21D;63874;47.230;39.620;2023-02-28T04:01:11;6.84;75.74
75281;HTU21D;63874;47.230;39.620;2023-02-28T04:03:38;6.86;75.75
75281;HTU21D;63874;47.230;39.620;2023-02-28T04:06:08;6.83;75.77
75281;HTU21D;63874;47.230;39.620;2023-02-28T04:08:39;6.87;75.79
75281;HTU21D;63874;47.230;39.620;2023-02-28T04:13:44;6.86;75.77
75281;HTU21D;63874;47.230;39.620;2023-02-28T04:16:10;6.87;75.66
75281;HTU21D;63874;47.230;39.620;2023-02-28T04:18:43;6.85;75.47
75281;HTU21D;63874;47.230;39.620;2023-02-28T04:21:10;6.83;75.32
75281;HTU21D;63874;47.230;39.620;2023-02-28T04:23:36;6.81;75.35
75281;HTU21D;63874;47.230;39.620;2023-02-28T04:26:02;6.78;75.30
75281;HTU21D;63874;47.230;39.620;2023-02-28T04:28:29;6.74;75.66
75281;HTU21D;63874;47.230;39.620;2023-02-28T04:31:03;6.76;75.51
75281;HTU21D;63874;47.230;39.620;2023-02-28T04:33:30;6.72;75.73
75281;HTU21D;63874;47.230;39.620;2023-02-28T04:36:07;6.72;75.92
75281;HTU21D;63874;47.230;39.620;2023-02-28T04:38:38;6.72;75.95
75281;HTU21D;63874;47.230;39.620;2023-02-28T04:41:05;6.67;76.02
75281;HTU21D;63874;47.230;39.620;2023-02-28T04:43:31;6.64;75.89
75281;HTU21D;63874;47.230;39.620;2023-02-28T04:46:00;6.60;76.00
75281;HTU21D;63874;47.230;39.620;2023-02-28T04:48:29;6.59;76.18
75281;HTU21D;63874;47.230;39.620;2023-02-28T04:50:55;6.57;76.13
75281;HTU21D;63874;47.230;39.620;2023-02-28T04:53:25;6.64;76.20
75281;HTU21D;63874;47.230;39.620;2023-02-28T04:55:51;6.68;76.38
75281;HTU21D;63874;47.230;39.620;2023-02-28T04:58:17;6.74;76.37
75281;HTU21D;63874;47.230;39.620;2023-02-28T05:00:43;6.81;76.21
75281;HTU21D;63874;47.230;39.620;2023-02-28T05:03:08;6.89;76.21
75281;HTU21D;63874;47.230;39.620;2023-02-28T05:05:35;6.98;76.14
75281;HTU21D;63874;47.230;39.620;2023-02-28T05:08:02;7.08;76.00
75281;HTU21D;63874;47.230;39.620;2023-02-28T05:10:28;7.16;75.95
75281;HTU21D;63874;47.230;39.620;2023-02-28T05:12:54;7.24;75.76
75281;HTU21D;63874;47.230;39.620;2023-02-28T05:15:20;7.30;75.67
75281;HTU21D;63874;47.230;39.620;2023-02-28T05:17:45;7.39;75.61
75281;HTU21D;63874;47.230;39.620;2023-02-28T05:20:12;7.49;75.44
75281;HTU21D;63874;47.230;39.620;2023-02-28T05:22:41;7.61;75.25
75281;HTU21D;63874;47.230;39.620;2023-02-28T05:25:13;7.70;75.01
75281;HTU21D;63874;47.230;39.620;2023-02-28T05:27:40;7.77;74.78
75281;HTU21D;63874;47.230;39.620;2023-02-28T05:30:07;7.81;74.73
75281;HTU21D;63874;47.230;39.620;2023-02-28T05:32:39;7.86;74.58
75281;HTU21D;63874;47.230;39.620;2023-02-28T05:35:12;7.85;74.35
75281;HTU21D;63874;47.230;39.620;2023-02-28T05:37:38;7.82;74.25
75281;HTU21D;63874;47.230;39.620;2023-02-28T05:40:11;7.81;74.18
75281;HTU21D;63874;47.230;39.620;2023-02-28T05:42:37;7.78;74.31
75281;HTU21D;63874;47.230;39.620;2023-02-28T05:45:05;7.78;74.22
75281;HTU21D;63874;47.230;39.620;2023-02-28T05:47:32;7.79;74.31
75281;HTU21D;63874;47.230;39.620;2023-02-28T05:49:58;7.81;74.31
75281;HTU21D;63874;47.230;39.620;2023-02-28T05:52:24;7.84;74.11
75281;HTU21D;63874;47.230;39.620;2023-02-28T05:54:50;7.85;74.04
75281;HTU21D;63874;47.230;39.620;2023-02-28T05:57:19;7.83;74.02
75281;HTU21D;63874;47.230;39.620;2023-02-28T05:59:45;7.81;74.03
75281;HTU21D;63874;47.230;39.620;2023-02-28T06:02:14;7.74;74.02
75281;HTU21D;63874;47.230;39.620;2023-02-28T06:04:40;7.74;73.88
75281;HTU21D;63874;47.230;39.620;2023-02-28T06:07:07;7.70;73.91
75281;HTU21D;63874;47.230;39.620;2023-02-28T06:09:34;7.63;73.83
75281;HTU21D;63874;47.230;39.620;2023-02-28T06:12:01;7.58;74.05
75281;HTU21D;63874;47.230;39.620;2023-02-28T06:14:29;7.57;74.07
75281;HTU21D;63874;47.230;39.620;2023-02-28T06:16:57;7.54;73.90
75281;HTU21D;63874;47.230;39.620;2023-02-28T06:19:32;7.50;74.24
75281;HTU21D;63874;47.230;39.620;2023-02-28T06:21:59;7.50;74.34
75281;HTU21D;63874;47.230;39.620;2023-02-28T06:24:25;7.48;74.41
75281;HTU21D;63874;47.230;39.620;2023-02-28T06:26:53;7.48;74.48
75281;HTU21D;63874;47.230;39.620;2023-02-28T06:29:19;7.47;74.51
75281;HTU21D;63874;47.230;39.620;2023-02-28T06:31:46;7.45;74.68
75281;HTU21D;63874;47.230;39.620;2023-02-28T06:34:13;7.40;74.84
75281;HTU21D;63874;47.230;39.620;2023-02-28T06:36:40;7.33;74.85
75281;HTU21D;63874;47.230;39.620;2023-02-28T06:39:07;7.30;74.87
75281;HTU21D;63874;47.230;39.620;2023-02-28T06:41:34;7.30;74.99
75281;HTU21D;63874;47.230;39.620;2023-02-28T06:44:04;7.28;75.15
75281;HTU21D;63874;47.230;39.620;2023-02-28T06:46:31;7.39;75.14
75281;HTU21D;63874;47.230;39.620;2023-02-28T06:48:57;7.43;75.15
75281;HTU21D;63874;47.230;39.620;2023-02-28T06:51:23;7.53;74.97
75281;HTU21D;63874;47.230;39.620;2023-02-28T06:53:50;7.59;74.80
75281;HTU21D;63874;47.230;39.620;2023-02-28T06:56:17;7.68;74.75
75281;HTU21D;63874;47.230;39.620;2023-02-28T06:58:50;7.81;74.63
75281;HTU21D;63874;47.230;39.620;2023-02-28T07:01:18;7.99;74.43
75281;HTU21D;63874;47.230;39.620;2023-02-28T07:03:46;8.20;73.98
75281;HTU21D;63874;47.230;39.620;2023-02-28T07:06:12;8.39;73.44
75281;HTU21D;63874;47.230;39.620;2023-02-28T07:08:40;8.56;73.19
75281;HTU21D;63874;47.230;39.620;2023-02-28T07:11:06;8.75;72.68
75281;HTU21D;63874;47.230;39.620;2023-02-28T07:13:32;8.93;72.48
75281;HTU21D;63874;47.230;39.620;2023-02-28T07:16:01;9.07;72.01
75281;HTU21D;63874;47.230;39.620;2023-02-28T07:18:28;9.21;71.74
75281;HTU21D;63874;47.230;39.620;2023-02-28T07:20:54;9.37;71.29
75281;HTU21D;63874;47.230;39.620;2023-02-28T07:23:21;9.52;70.88
75281;HTU21D;63874;47.230;39.620;2023-02-28T07:25:48;9.64;70.32
75281;HTU21D;63874;47.230;39.620;2023-02-28T07:28:14;9.64;70.03
75281;HTU21D;63874;47.230;39.620;2023-02-28T07:30:41;9.46;70.19
75281;HTU21D;63874;47.230;39.620;2023-02-28T07:33:07;9.40;70.31
75281;HTU21D;63874;47.230;39.620;2023-02-28T07:35:33;9.36;69.87
75281;HTU21D;63874;47.230;39.620;2023-02-28T07:37:59;9.26;69.94
75281;HTU21D;63874;47.230;39.620;2023-02-28T07:40:25;9.19;70.23
75281;HTU21D;63874;47.230;39.620;2023-02-28T07:42:52;9.23;70.35
75281;HTU21D;63874;47.230;39.620;2023-02-28T07:45:18;9.26;70.45
75281;HTU21D;63874;47.230;39.620;2023-02-28T07:47:45;9.32;70.52
75281;HTU21D;63874;47.230;39.620;2023-02-28T07:50:13;9.40;70.25
75281;HTU21D;63874;47.230;39.620;2023-02-28T07:52:40;9.50;70.34
75281;HTU21D;63874;47.230;39.620;2023-02-28T07:55:07;9.64;70.24
75281;HTU21D;63874;47.230;39.620;2023-02-28T07:57:36;9.85;70.19
75281;HTU21D;63874;47.230;39.620;2023-02-28T08:00:09;10.13;69.42
75281;HTU21D;63874;47.230;39.620;2023-02-28T08:02:39;10.36;68.34
75281;HTU21D;63874;47.230;39.620;2023-02-28T08:05:06;10.37;67.74
75281;HTU21D;63874;47.230;39.620;2023-02-28T08:07:32;10.25;67.71
75281;HTU21D;63874;47.230;39.620;2023-02-28T08:09:59;10.13;67.86
75281;HTU21D;63874;47.230;39.620;2023-02-28T08:12:25;9.98;68.08
75281;HTU21D;63874;47.230;39.620;2023-02-28T08:14:51;9.90;68.50
75281;HTU21D;63874;47.230;39.620;2023-02-28T08:17:17;9.86;68.51
75281;HTU21D;63874;47.230;39.620;2023-02-28T08:19:46;9.84;68.71
75281;HTU21D;63874;47.230;39.620;2023-02-28T08:22:12;9.85;68.78
75281;HTU21D;63874;47.230;39.620;2023-02-28T08:24:39;9.89;68.57
75281;HTU21D;63874;47.230;39.620;2023-02-28T08:27:06;9.88;68.61
75281;HTU21D;63874;47.230;39.620;2023-02-28T08:29:32;9.94;68.62
75281;HTU21D;63874;47.230;39.620;2023-02-28T08:31:57;10.00;68.58
75281;HTU21D;63874;47.230;39.620;2023-02-28T08:34:24;9.97;68.50
75281;HTU21D;63874;47.230;39.620;2023-02-28T08:36:50;9.93;68.36
75281;HTU21D;63874;47.230;39.620;2023-02-28T08:39:16;9.85;68.41
75281;HTU21D;63874;47.230;39.620;2023-02-28T08:41:42;9.82;68.31
75281;HTU21D;63874;47.230;39.620;2023-02-28T08:44:09;9.70;68.38
75281;HTU21D;63874;47.230;39.620;2023-02-28T08:46:35;9.55;68.53
75281;HTU21D;63874;47.230;39.620;2023-02-28T08:49:01;9.37;68.77
75281;HTU21D;63874;47.230;39.620;2023-02-28T08:51:40;9.29;69.24
75281;HTU21D;63874;47.230;39.620;2023-02-28T08:54:06;9.30;69.38
75281;HTU21D;63874;47.230;39.620;2023-02-28T08:56:32;9.35;69.86
75281;HTU21D;63874;47.230;39.620;2023-02-28T08:58:58;9.22;70.13
75281;HTU21D;63874;47.230;39.620;2023-02-28T09:01:27;9.07;70.04
75281;HTU21D;63874;47.230;39.620;2023-02-28T09:03:54;8.97;70.24
75281;HTU21D;63874;47.230;39.620;2023-02-28T09:06:23;8.88;70.77
75281;HTU21D;63874;47.230;39.620;2023-02-28T09:08:50;8.86;71.11
75281;HTU21D;63874;47.230;39.620;2023-02-28T09:11:16;8.89;71.10
75281;HTU21D;63874;47.230;39.620;2023-02-28T09:13:44;8.98;71.02
75281;HTU21D;63874;47.230;39.620;2023-02-28T09:16:13;9.05;70.83
75281;HTU21D;63874;47.230;39.620;2023-02-28T09:18:40;9.01;70.92
75281;HTU21D;63874;47.230;39.620;2023-02-28T09:21:08;8.96;71.20
75281;HTU21D;63874;47.230;39.620;2023-02-28T09:23:35;8.90;71.29
75281;HTU21D;63874;47.230;39.620;2023-02-28T09:26:03;8.83;71.38
75281;HTU21D;63874;47.230;39.620;2023-02-28T09:28:30;8.79;71.72
75281;HTU21D;63874;47.230;39.620;2023-02-28T09:31:03;8.71;71.95
75281;HTU21D;63874;47.230;39.620;2023-02-28T09:33:30;8.56;72.34
75281;HTU21D;63874;47.230;39.620;2023-02-28T09:36:00;8.46;72.74
75281;HTU21D;63874;47.230;39.620;2023-02-28T09:38:28;8.41;72.80
75281;HTU21D;63874;47.230;39.620;2023-02-28T09:41:00;8.33;73.02
75281;HTU21D;63874;47.230;39.620;2023-02-28T09:43:33;8.23;73.46
75281;HTU21D;63874;47.230;39.620;2023-02-28T09:46:17;8.22;73.60
75281;HTU21D;63874;47.230;39.620;2023-02-28T09:48:49;8.18;73.67
75281;HTU21D;63874;47.230;39.620;2023-02-28T09:51:30;8.15;74.16
75281;HTU21D;63874;47.230;39.620;2023-02-28T09:53:58;8.04;74.17
75281;HTU21D;63874;47.230;39.620;2023-02-28T09:56:31;7.89;75.00
75281;HTU21D;63874;47.230;39.620;2023-02-28T09:59:10;7.90;75.21
75281;HTU21D;63874;47.230;39.620;2023-02-28T10:01:56;7.84;75.28
75281;HTU21D;63874;47.230;39.620;2023-02-28T10:04:47;7.86;75.16
75281;HTU21D;63874;47.230;39.620;2023-02-28T10:07:45;7.91;75.10
75281;HTU21D;63874;47.230;39.620;2023-02-28T10:10:24;7.98;75.03
75281;HTU21D;63874;47.230;39.620;2023-02-28T10:12:54;8.02;75.18
75281;HTU21D;63874;47.230;39.620;2023-02-28T10:15:24;8.05;74.97
75281;HTU21D;63874;47.230;39.620;2023-02-28T10:17:56;8.07;74.78
75281;HTU21D;63874;47.230;39.620;2023-02-28T10:20:24;8.04;75.09
75281;HTU21D;63874;47.230;39.620;2023-02-28T10:25:36;7.78;75.05
75281;HTU21D;63874;47.230;39.620;2023-02-28T10:28:11;7.72;75.34
75281;HTU21D;63874;47.230;39.620;2023-02-28T10:30:41;7.72;75.25
75281;HTU21D;63874;47.230;39.620;2023-02-28T10:33:24;7.70;75.34
75281;HTU21D;63874;47.230;39.620;2023-02-28T10:36:14;7.63;75.31
75281;HTU21D;63874;47.230;39.620;2023-02-28T10:38:42;7.68;75.25
75281;HTU21D;63874;47.230;39.620;2023-02-28T10:41:11;7.70;75.21
75281;HTU21D;63874;47.230;39.620;2023-02-28T10:43:39;7.72;75.18
75281;HTU21D;63874;47.230;39.620;2023-02-28T10:51:25;7.72;74.65
75281;HTU21D;63874;47.230;39.620;2023-02-28T10:53:55;7.67;74.83
75281;HTU21D;63874;47.230;39.620;2023-02-28T10:56:24;7.59;74.78
75281;HTU21D;63874;47.230;39.620;2023-02-28T11:01:43;7.48;75.08
75281;HTU21D;63874;47.230;39.620;2023-02-28T11:04:36;7.44;75.44
75281;HTU21D;63874;47.230;39.620;2023-02-28T11:07:06;7.40;75.39
75281;HTU21D;63874;47.230;39.620;2023-02-28T11:09:44;7.41;75.35
75281;HTU21D;63874;47.230;39.620;2023-02-28T11:12:23;7.35;75.35
75281;HTU21D;63874;47.230;39.620;2023-02-28T11:14:57;7.38;75.52
75281;HTU21D;63874;47.230;39.620;2023-02-28T11:17:28;7.39;75.48
75281;HTU21D;63874;47.230;39.620;2023-02-28T11:19:58;7.39;75.66
75281;HTU21D;63874;47.230;39.620;2023-02-28T11:22:29;7.37;75.37
75281;HTU21D;63874;47.230;39.620;2023-02-28T11:25:02;7.35;75.51
75281;HTU21D;63874;47.230;39.620;2023-02-28T11:29:59;7.26;75.64
75281;HTU21D;63874;47.230;39.620;2023-02-28T11:32:30;7.17;75.71
75281;HTU21D;63874;47.230;39.620;2023-02-28T11:37:38;7.07;75.36
75281;HTU21D;63874;47.230;39.620;2023-02-28T11:40:19;7.02;75.79
75281;HTU21D;63874;47.230;39.620;2023-02-28T11:48:20;6.95;75.74
75281;HTU21D;63874;47.230;39.620;2023-02-28T11:51:05;6.87;75.67
75281;HTU21D;63874;47.230;39.620;2023-02-28T11:56:54;6.75;75.98
75281;HTU21D;63874;47.230;39.620;2023-02-28T11:59:40;6.69;75.97
75281;HTU21D;63874;47.230;39.620;2023-02-28T12:02:25;6.64;75.89
75281;HTU21D;63874;47.230;39.620;2023-02-28T12:14:03;6.44;76.44
75281;HTU21D;63874;47.230;39.620;2023-02-28T12:16:46;6.31;76.73
75281;HTU21D;63874;47.230;39.620;2023-02-28T12:19:30;6.29;76.80
75281;HTU21D;63874;47.230;39.620;2023-02-28T12:24:47;6.10;77.69
75281;HTU21D;63874;47.230;39.620;2023-02-28T12:27:17;6.07;77.53
75281;HTU21D;63874;47.230;39.620;2023-02-28T12:32:42;6.07;78.09
75281;HTU21D;63874;47.230;39.620;2023-02-28T12:38:14;6.04;78.14
75281;HTU21D;63874;47.230;39.620;2023-02-28T12:41:16;5.97;78.18
75281;HTU21D;63874;47.230;39.620;2023-02-28T12:43:44;5.91;78.35
75281;HTU21D;63874;47.230;39.620;2023-02-28T12:46:32;5.86;78.72
75281;HTU21D;63874;47.230;39.620;2023-02-28T12:49:02;5.84;78.54
75281;HTU21D;63874;47.230;39.620;2023-02-28T12:51:30;5.81;78.76
75281;HTU21D;63874;47.230;39.620;2023-02-28T12:57:07;5.74;79.21
75281;HTU21D;63874;47.230;39.620;2023-02-28T13:10:12;5.42;79.92
75281;HTU21D;63874;47.230;39.620;2023-02-28T13:12:51;5.41;80.14
75281;HTU21D;63874;47.230;39.620;2023-02-28T13:15:26;5.46;80.06
75281;HTU21D;63874;47.230;39.620;2023-02-28T13:17:58;5.41;80.07
75281;HTU21D;63874;47.230;39.620;2023-02-28T13:20:47;5.51;80.33
75281;HTU21D;63874;47.230;39.620;2023-02-28T13:26:18;5.53;79.98
75281;HTU21D;63874;47.230;39.620;2023-02-28T13:28:58;5.52;79.72
75281;HTU21D;63874;47.230;39.620;2023-02-28T13:31:25;5.50;79.69
75281;HTU21D;63874;47.230;39.620;2023-02-28T13:36:26;5.54;79.33
75281;HTU21D;63874;47.230;39.620;2023-02-28T13:45:21;5.48;79.18
75281;HTU21D;63874;47.230;39.620;2023-02-28T13:48:04;5.48;79.39
75281;HTU21D;63874;47.230;39.620;2023-02-28T13:50:38;5.47;79.33
75281;HTU21D;63874;47.230;39.620;2023-02-28T14:06:50;5.33;79.37
75281;HTU21D;63874;47.230;39.620;2023-02-28T14:09:45;5.35;79.46
75281;HTU21D;63874;47.230;39.620;2023-02-28T14:18:05;5.35;79.10
75281;HTU21D;63874;47.230;39.620;2023-02-28T14:20:36;5.31;79.31
75281;HTU21D;63874;47.230;39.620;2023-02-28T14:32:05;5.08;79.32
75281;HTU21D;63874;47.230;39.620;2023-02-28T14:37:05;4.94;79.82
75281;HTU21D;63874;47.230;39.620;2023-02-28T14:39:33;4.87;79.79
75281;HTU21D;63874;47.230;39.620;2023-02-28T14:42:00;4.81;79.88
75281;HTU21D;63874;47.230;39.620;2023-02-28T14:44:30;4.80;79.95
75281;HTU21D;63874;47.230;39.620;2023-02-28T14:47:00;4.86;79.74
75281;HTU21D;63874;47.230;39.620;2023-02-28T14:49:36;4.88;79.64
75281;HTU21D;63874;47.230;39.620;2023-02-28T14:52:22;4.83;79.69
75281;HTU21D;63874;47.230;39.620;2023-02-28T14:55:00;4.79;79.47
75281;HTU21D;63874;47.230;39.620;2023-02-28T14:57:30;4.80;79.66
75281;HTU21D;63874;47.230;39.620;2023-02-28T15:02:52;4.71;79.82
75281;HTU21D;63874;47.230;39.620;2023-02-28T15:05:32;4.69;79.82
75281;HTU21D;63874;47.230;39.620;2023-02-28T15:08:25;4.71;79.75
75281;HTU21D;63874;47.230;39.620;2023-02-28T15:11:01;4.67;79.73
75281;HTU21D;63874;47.230;39.620;2023-02-28T15:13:52;4.64;79.78
75281;HTU21D;63874;47.230;39.620;2023-02-28T15:16:24;4.66;79.46
75281;HTU21D;63874;47.230;39.620;2023-02-28T15:21:23;4.67;79.33
75281;HTU21D;63874;47.230;39.620;2023-02-28T15:24:07;4.58;79.27
75281;HTU21D;63874;47.230;39.620;2023-02-28T15:26:40;4.50;79.34
75281;HTU21D;63874;47.230;39.620;2023-02-28T15:29:16;4.45;79.56
75281;HTU21D;63874;47.230;39.620;2023-02-28T15:31:55;4.38;79.62
75281;HTU21D;63874;47.230;39.620;2023-02-28T15:36:59;4.36;79.97
75281;HTU21D;63874;47.230;39.620;2023-02-28T15:39:28;4.39;79.82
75281;HTU21D;63874;47.230;39.620;2023-02-28T15:42:21;4.37;79.85
75281;HTU21D;63874;47.230;39.620;2023-02-28T15:44:48;4.33;79.88
75281;HTU21D;63874;47.230;39.620;2023-02-28T15:47:22;4.32;79.74
75281;HTU21D;63874;47.230;39.620;2023-02-28T15:50:06;4.26;79.79
75281;HTU21D;63874;47.230;39.620;2023-02-28T15:52:45;4.17;79.98
75281;HTU21D;63874;47.230;39.620;2023-02-28T15:55:20;4.09;80.17
75281;HTU21D;63874;47.230;39.620;2023-02-28T15:57:54;4.03;80.24
75281;HTU21D;63874;47.230;39.620;2023-02-28T16:00:24;3.93;80.76
75281;HTU21D;63874;47.230;39.620;2023-02-28T16:02:51;3.90;80.48
75281;HTU21D;63874;47.230;39.620;2023-02-28T16:05:27;3.90;80.65
75281;HTU21D;63874;47.230;39.620;2023-02-28T16:08:06;3.94;80.65
75281;HTU21D;63874;47.230;39.620;2023-02-28T16:10:37;4.03;80.69
75281;HTU21D;63874;47.230;39.620;2023-02-28T16:13:03;4.12;80.64
75281;HTU21D;63874;47.230;39.620;2023-02-28T16:15:32;4.21;80.43
75281;HTU21D;63874;47.230;39.620;2023-02-28T16:18:00;4.32;80.21
75281;HTU21D;63874;47.230;39.620;2023-02-28T16:20:29;4.39;80.08
75281;HTU21D;63874;47.230;39.620;2023-02-28T16:22:55;4.49;79.95
75281;HTU21D;63874;47.230;39.620;2023-02-28T16:25:39;4.59;79.82
75281;HTU21D;63874;47.230;39.620;2023-02-28T16:28:15;4.65;79.59
75281;HTU21D;63874;47.230;39.620;2023-02-28T16:30:43;4.71;79.32
75281;HTU21D;63874;47.230;39.620;2023-02-28T16:33:09;4.73;79.07
75281;HTU21D;63874;47.230;39.620;2023-02-28T16:35:35;4.74;78.99
75281;HTU21D;63874;47.230;39.620;2023-02-28T16:38:01;4.76;78.90
75281;HTU21D;63874;47.230;39.620;2023-02-28T16:40:27;4.78;78.82
75281;HTU21D;63874;47.230;39.620;2023-02-28T16:43:04;4.80;78.76
75281;HTU21D;63874;47.230;39.620;2023-02-28T16:45:31;4.83;78.68
75281;HTU21D;63874;47.230;39.620;2023-02-28T16:48:15;4.88;78.43
75281;HTU21D;63874;47.230;39.620;2023-02-28T16:50:42;4.87;78.34
75281;HTU21D;63874;47.230;39.620;2023-02-28T16:53:10;4.91;78.30
75281;HTU21D;63874;47.230;39.620;2023-02-28T16:55:36;4.93;78.24
75281;HTU21D;63874;47.230;39.620;2023-02-28T16:58:13;4.97;77.99
75281;HTU21D;63874;47.230;39.620;2023-02-28T17:00:40;4.98;77.66
75281;HTU21D;63874;47.230;39.620;2023-02-28T17:03:13;5.01;77.57
75281;HTU21D;63874;47.230;39.620;2023-02-28T17:05:44;4.96;77.53
75281;HTU21D;63874;47.230;39.620;2023-02-28T17:08:11;4.97;77.37
75281;HTU21D;63874;47.230;39.620;2023-02-28T17:10:37;4.93;77.28
75281;HTU21D;63874;47.230;39.620;2023-02-28T17:13:02;4.92;77.19
75281;HTU21D;63874;47.230;39.620;2023-02-28T17:15:29;4.90;77.27
75281;HTU21D;63874;47.230;39.620;2023-02-28T17:17:56;4.88;77.31
75281;HTU21D;63874;47.230;39.620;2023-02-28T17:20:22;4.90;77.20
75281;HTU21D;63874;47.230;39.620;2023-02-28T17:22:52;4.91;77.08
75281;HTU21D;63874;47.230;39.620;2023-02-28T17:25:19;4.88;76.77
75281;HTU21D;63874;47.230;39.620;2023-02-28T17:27:47;4.86;76.80
75281;HTU21D;63874;47.230;39.620;2023-02-28T17:30:20;4.88;76.49
75281;HTU21D;63874;47.230;39.620;2023-02-28T17:32:47;4.86;76.16
75281;HTU21D;63874;47.230;39.620;2023-02-28T17:35:18;4.78;76.32
75281;HTU21D;63874;47.230;39.620;2023-02-28T17:37:45;4.73;76.50
75281;HTU21D;63874;47.230;39.620;2023-02-28T17:40:14;4.74;76.28
75281;HTU21D;63874;47.230;39.620;2023-02-28T17:42:40;4.74;76.10
75281;HTU21D;63874;47.230;39.620;2023-02-28T17:45:06;4.71;76.22
75281;HTU21D;63874;47.230;39.620;2023-02-28T17:47:37;4.73;76.24
75281;HTU21D;63874;47.230;39.620;2023-02-28T17:50:04;4.73;76.35
75281;HTU21D;63874;47.230;39.620;2023-02-28T17:52:30;4.74;75.99
75281;HTU21D;63874;47.230;39.620;2023-02-28T17:54:56;4.72;76.08
75281;HTU21D;63874;47.230;39.620;2023-02-28T17:57:22;4.71;76.09
75281;HTU21D;63874;47.230;39.620;2023-02-28T17:59:48;4.69;76.10
75281;HTU21D;63874;47.230;39.620;2023-02-28T18:02:14;4.69;76.02